createdAt,value
2022-08-22T00:01:06.715Z,0.40
2022-08-22T00:02:52.803Z,1.40
2022-08-22T00:02:55.386Z,0.40
2022-08-22T00:03:11.074Z,0.50
2022-08-22T00:03:36.501Z,0.30
2022-08-22T00:06:42.703Z,0.60
2022-08-22T00:09:31.117Z,0.50
2022-08-22T00:12:18.032Z,0.30
2022-08-22T00:15:06.110Z,0.30
2022-08-22T00:17:30.373Z,0.30
2022-08-22T00:20:05.612Z,0.60
2022-08-22T00:22:44.009Z,0.40
2022-08-22T00:25:00.128Z,0.30
2022-08-22T00:27:17.311Z,0.40
2022-08-22T00:29:35.348Z,0.30
2022-08-22T00:32:08.464Z,0.40
2022-08-22T00:34:37.640Z,0.50
2022-08-22T00:37:50.073Z,0.40
2022-08-22T00:40:54.908Z,0.30
2022-08-22T00:44:03.507Z,0.30
2022-08-22T00:47:10.911Z,0.30
2022-08-22T00:49:55.059Z,0.40
2022-08-22T00:52:32.535Z,0.30
2022-08-22T00:54:58.150Z,0.20
2022-08-22T00:57:45.036Z,0.40
2022-08-22T01:00:07.120Z,0.30
2022-08-22T01:02:34.920Z,0.20
2022-08-22T01:04:42.506Z,0.40
2022-08-22T01:07:53.373Z,0.30
2022-08-22T01:10:42.286Z,0.30
2022-08-22T01:13:07.034Z,0.30
2022-08-22T01:15:20.033Z,0.60
2022-08-22T01:18:09.267Z,0.40
2022-08-22T01:20:48.738Z,0.50
2022-08-22T01:23:20.698Z,0.40
2022-08-22T01:26:00.362Z,0.70
2022-08-22T01:28:16.118Z,0.50
2022-08-22T01:30:35.981Z,0.60
2022-08-22T01:34:02.143Z,0.50
2022-08-22T01:37:12.786Z,0.40
2022-08-22T01:39:46.634Z,0.50
2022-08-22T01:42:29.460Z,0.70
2022-08-22T01:44:52.939Z,0.40
2022-08-22T01:47:24.556Z,0.60
2022-08-22T01:49:36.886Z,0.60
2022-08-22T01:51:57.989Z,0.50
2022-08-22T01:54:12.920Z,0.80
2022-08-22T01:56:28.201Z,0.60
2022-08-22T01:58:40.363Z,0.60
2022-08-22T02:01:11.975Z,0.60
2022-08-22T02:04:21.461Z,0.40
2022-08-22T02:07:32.010Z,0.70
2022-08-22T02:10:36.894Z,0.70
2022-08-22T02:12:53.876Z,0.80
2022-08-22T02:15:13.248Z,0.60
2022-08-22T02:18:01.149Z,0.60
2022-08-22T02:20:40.528Z,0.70
2022-08-22T02:23:38.842Z,0.80
2022-08-22T02:25:54.985Z,1.10
2022-08-22T02:28:15.866Z,1.10
2022-08-22T02:30:46.212Z,0.80
2022-08-22T02:33:19.322Z,1.00
2022-08-22T02:35:32.269Z,1.40
2022-08-22T02:38:09.631Z,1.40
2022-08-22T02:40:54.927Z,0.80
2022-08-22T02:43:44.868Z,0.80
2022-08-22T02:46:33.293Z,0.70
2022-08-22T02:49:02.350Z,1.00
2022-08-22T02:51:24.045Z,1.10
2022-08-22T02:53:57.352Z,1.10
2022-08-22T02:56:37.500Z,1.20
2022-08-22T02:59:54.302Z,1.20
2022-08-22T03:02:49.658Z,1.60
2022-08-22T03:06:09.866Z,1.20
2022-08-22T03:09:18.337Z,1.20
2022-08-22T03:11:44.250Z,0.70
2022-08-22T03:14:49.723Z,0.80
2022-08-22T03:17:18.192Z,1.10
2022-08-22T03:19:41.055Z,1.00
2022-08-22T03:22:27.191Z,0.80
2022-08-22T03:25:17.333Z,0.80
2022-08-22T03:27:58.018Z,0.90
2022-08-22T03:30:14.006Z,0.80
2022-08-22T03:33:34.398Z,0.80
2022-08-22T03:36:08.406Z,0.90
2022-08-22T03:38:35.220Z,0.60
2022-08-22T03:41:05.078Z,0.80
2022-08-22T03:43:59.525Z,0.70
2022-08-22T03:46:35.077Z,0.80
2022-08-22T03:49:41.981Z,0.70
2022-08-22T03:52:24.178Z,0.70
2022-08-22T03:54:56.367Z,0.70
2022-08-22T03:57:38.338Z,0.70
2022-08-22T04:00:32.077Z,0.70
2022-08-22T04:03:40.873Z,0.80
2022-08-22T04:06:50.943Z,0.80
2022-08-22T04:09:44.246Z,0.50
2022-08-22T04:12:19.610Z,0.50
2022-08-22T04:14:58.507Z,0.60
2022-08-22T04:18:01.612Z,0.70
2022-08-22T04:21:11.592Z,0.50
2022-08-22T04:23:51.190Z,0.50
2022-08-22T04:26:11.967Z,0.40
2022-08-22T04:28:27.172Z,0.50
2022-08-22T04:31:13.271Z,0.40
2022-08-22T04:33:49.420Z,0.60
2022-08-22T04:36:27.456Z,0.70
2022-08-22T04:39:11.884Z,0.30
2022-08-22T04:42:32.210Z,0.90
2022-08-22T04:45:25.364Z,1.10
2022-08-22T04:47:57.938Z,0.50
2022-08-22T04:50:29.073Z,0.60
2022-08-22T04:53:04.812Z,0.50
2022-08-22T04:55:57.261Z,0.50
2022-08-22T04:58:59.729Z,0.30
2022-08-22T05:01:16.966Z,0.40
2022-08-22T05:03:26.517Z,0.60
2022-08-22T05:05:41.993Z,0.50
2022-08-22T05:08:14.643Z,0.70
2022-08-22T05:10:29.947Z,0.50
2022-08-22T05:12:44.613Z,0.60
2022-08-22T05:14:57.093Z,0.70
2022-08-22T05:17:07.562Z,0.60
2022-08-22T05:19:31.140Z,0.60
2022-08-22T05:21:44.941Z,0.40
2022-08-22T05:24:06.293Z,0.50
2022-08-22T05:26:41.829Z,0.50
2022-08-22T05:28:53.431Z,0.50
2022-08-22T05:31:01.117Z,0.60
2022-08-22T05:33:46.195Z,0.50
2022-08-22T05:36:22.025Z,3.50
2022-08-22T05:38:41.667Z,1.90
2022-08-22T05:40:59.993Z,2.00
2022-08-22T05:43:15.948Z,0.90
2022-08-22T05:45:39.222Z,0.60
2022-08-22T05:48:14.819Z,0.50
2022-08-22T05:50:54.320Z,0.40
2022-08-22T05:53:37.199Z,0.50
2022-08-22T05:56:25.591Z,0.40
2022-08-22T05:59:01.292Z,0.50
2022-08-22T06:01:43.175Z,0.40
2022-08-22T06:04:24.391Z,0.50
2022-08-22T06:07:21.638Z,0.40
2022-08-22T06:09:49.692Z,0.50
2022-08-22T06:12:48.491Z,0.50
2022-08-22T06:15:47.798Z,0.50
2022-08-22T06:18:17.926Z,0.40
2022-08-22T06:20:50.897Z,0.50
2022-08-22T06:23:23.673Z,0.50
2022-08-22T06:25:49.840Z,0.60
2022-08-22T06:28:15.608Z,0.50
2022-08-22T06:30:29.857Z,0.40
2022-08-22T06:32:59.094Z,0.40
2022-08-22T06:36:00.527Z,0.50
2022-08-22T06:38:22.564Z,0.40
2022-08-22T06:40:30.971Z,0.30
2022-08-22T06:42:50.146Z,0.50
2022-08-22T06:45:09.393Z,0.50
2022-08-22T06:47:49.905Z,0.40
2022-08-22T06:50:03.089Z,0.40
2022-08-22T06:52:24.850Z,0.50
2022-08-22T06:54:46.642Z,0.50
2022-08-22T06:56:57.023Z,0.40
2022-08-22T06:59:32.942Z,0.40
2022-08-22T07:01:53.111Z,0.50
2022-08-22T07:04:28.215Z,0.40
2022-08-22T07:06:45.292Z,0.60
2022-08-22T07:08:59.703Z,0.50
2022-08-22T07:11:29.263Z,0.60
2022-08-22T07:13:43.996Z,0.60
2022-08-22T07:16:33.879Z,0.60
2022-08-22T07:19:14.060Z,0.60
2022-08-22T07:21:45.285Z,0.60
2022-08-22T07:24:02.417Z,0.50
2022-08-22T07:26:44.902Z,0.40
2022-08-22T07:29:11.282Z,0.50
2022-08-22T07:31:46.779Z,0.40
2022-08-22T07:34:18.999Z,0.60
2022-08-22T07:36:49.670Z,0.50
2022-08-22T07:39:24.300Z,0.50
2022-08-22T07:41:56.141Z,0.50
2022-08-22T07:44:24.517Z,0.60
2022-08-22T07:49:25.987Z,0.60
2022-08-22T07:52:16.837Z,1.00
2022-08-22T07:54:39.680Z,0.50
2022-08-22T07:57:10.687Z,0.70
2022-08-22T07:59:23.488Z,0.50
2022-08-22T08:01:36.816Z,0.50
2022-08-22T08:03:44.938Z,0.60
2022-08-22T08:06:26.951Z,0.60
2022-08-22T08:08:43.034Z,0.60
2022-08-22T08:10:51.959Z,0.50
2022-08-22T08:13:04.757Z,0.40
2022-08-22T08:15:20.061Z,0.50
2022-08-22T08:17:41.444Z,0.40
2022-08-22T08:19:51.870Z,0.60
2022-08-22T08:22:22.532Z,0.70
2022-08-22T08:24:42.591Z,0.50
2022-08-22T08:27:18.828Z,0.70
2022-08-22T08:29:38.447Z,0.70
2022-08-22T08:31:49.313Z,0.60
2022-08-22T08:34:29.431Z,0.80
2022-08-22T08:36:59.925Z,0.50
2022-08-22T08:39:23.361Z,0.50
2022-08-22T08:42:02.651Z,0.60
2022-08-22T08:44:51.600Z,0.60
2022-08-22T08:47:29.190Z,0.50
2022-08-22T08:49:51.081Z,0.70
2022-08-22T08:52:09.965Z,0.50
2022-08-22T08:54:44.819Z,0.50
2022-08-22T08:57:49.599Z,0.60
2022-08-22T09:03:06.918Z,0.40
2022-08-22T09:06:14.023Z,0.60
2022-08-22T09:08:59.303Z,0.70
2022-08-22T09:11:46.210Z,0.70
2022-08-22T09:14:12.034Z,0.80
2022-08-22T09:17:25.874Z,0.80
2022-08-22T09:20:29.084Z,0.70
2022-08-22T09:22:50.527Z,0.80
2022-08-22T09:25:06.246Z,0.70
2022-08-22T09:27:45.502Z,0.90
2022-08-22T09:30:12.380Z,0.80
2022-08-22T09:33:08.614Z,0.90
2022-08-22T09:35:26.425Z,0.90
2022-08-22T09:38:02.999Z,0.70
2022-08-22T09:41:02.223Z,0.90
2022-08-22T09:43:33.696Z,0.90
2022-08-22T09:46:32.124Z,0.70
2022-08-22T09:49:35.030Z,0.70
2022-08-22T09:51:43.961Z,0.70
2022-08-22T09:53:58.696Z,0.80
2022-08-22T09:56:57.102Z,0.90
2022-08-22T09:59:22.704Z,1.10
2022-08-22T10:01:52.093Z,0.80
2022-08-22T10:04:28.578Z,0.70
2022-08-22T10:06:50.090Z,0.70
2022-08-22T10:09:11.902Z,0.50
2022-08-22T10:12:03.422Z,0.90
2022-08-22T10:14:52.092Z,0.90
2022-08-22T10:17:41.034Z,0.70
2022-08-22T10:23:07.933Z,0.60
2022-08-22T10:25:33.530Z,0.50
2022-08-22T10:28:19.432Z,0.70
2022-08-22T10:30:35.458Z,0.60
2022-08-22T10:32:54.103Z,0.60
2022-08-22T10:35:15.326Z,0.90
2022-08-22T10:38:02.475Z,0.80
2022-08-22T10:41:03.727Z,0.60
2022-08-22T10:44:03.871Z,0.50
2022-08-22T10:46:42.402Z,1.00
2022-08-22T10:49:07.869Z,0.80
2022-08-22T10:52:19.777Z,0.60
2022-08-22T10:55:19.197Z,1.00
2022-08-22T10:57:31.383Z,0.90
2022-08-22T10:59:51.892Z,0.80
2022-08-22T11:02:31.033Z,0.60
2022-08-22T11:05:31.231Z,0.80
2022-08-22T11:11:03.993Z,0.90
2022-08-22T11:13:16.336Z,0.90
2022-08-22T11:15:36.174Z,0.70
2022-08-22T11:18:23.229Z,0.80
2022-08-22T11:20:50.901Z,0.60
2022-08-22T11:23:01.612Z,0.60
2022-08-22T11:26:14.679Z,0.80
2022-08-22T11:29:14.309Z,0.70
2022-08-22T11:31:22.677Z,0.70
2022-08-22T11:33:55.947Z,1.00
2022-08-22T11:36:57.490Z,1.50
2022-08-22T11:39:18.993Z,1.60
2022-08-22T11:41:40.100Z,1.20
2022-08-22T11:44:00.785Z,1.70
2022-08-22T11:46:36.706Z,1.50
2022-08-22T11:49:07.670Z,1.00
2022-08-22T11:52:02.812Z,0.80
2022-08-22T11:54:58.191Z,0.80
2022-08-22T11:57:19.545Z,0.90
2022-08-22T12:00:04.779Z,1.00
2022-08-22T12:02:36.424Z,1.00
2022-08-22T12:04:59.342Z,0.70
2022-08-22T12:07:53.646Z,0.80
2022-08-22T12:10:26.800Z,0.70
2022-08-22T12:13:00.753Z,1.10
2022-08-22T12:15:15.143Z,0.90
2022-08-22T12:20:38.764Z,1.00
2022-08-22T12:23:48.978Z,1.00
2022-08-22T12:26:41.005Z,1.20
2022-08-22T12:29:27.448Z,1.20
2022-08-22T12:32:01.682Z,1.30
2022-08-22T12:34:33.374Z,1.10
2022-08-22T12:36:47.119Z,1.10
2022-08-22T12:39:43.319Z,1.10
2022-08-22T12:42:12.571Z,0.90
2022-08-22T12:44:57.417Z,1.00
2022-08-22T12:47:26.842Z,1.10
2022-08-22T12:49:57.978Z,1.00
2022-08-22T12:52:52.274Z,1.10
2022-08-22T12:55:02.118Z,1.20
2022-08-22T12:57:30.982Z,1.00
2022-08-22T12:59:48.301Z,1.20
2022-08-22T13:01:59.469Z,1.40
2022-08-22T13:04:32.767Z,1.20
2022-08-22T13:06:41.097Z,1.20
2022-08-22T13:08:49.527Z,1.00
2022-08-22T13:11:10.057Z,1.40
2022-08-22T13:13:38.830Z,1.20
2022-08-22T13:16:20.863Z,1.00
2022-08-22T13:18:38.799Z,1.20
2022-08-22T13:20:56.470Z,1.30
2022-08-22T13:23:12.581Z,1.10
2022-08-22T13:26:07.507Z,1.40
2022-08-22T13:28:18.213Z,0.90
2022-08-22T13:30:34.686Z,1.00
2022-08-22T13:33:01.066Z,1.10
2022-08-22T13:35:14.348Z,1.00
2022-08-22T13:37:32.082Z,1.00
2022-08-22T13:39:44.072Z,1.10
2022-08-22T13:42:14.186Z,1.10
2022-08-22T13:44:40.550Z,1.00
2022-08-22T13:47:15.553Z,1.10
2022-08-22T13:49:36.502Z,1.50
2022-08-22T13:52:52.506Z,1.10
2022-08-22T13:55:19.229Z,1.10
2022-08-22T13:57:39.059Z,1.00
2022-08-22T14:00:11.198Z,1.20
2022-08-22T14:04:42.924Z,1.00
2022-08-22T14:07:15.961Z,1.10
2022-08-22T14:10:24.538Z,1.10
2022-08-22T14:13:37.746Z,1.20
2022-08-22T14:15:46.234Z,1.30
2022-08-22T14:18:15.762Z,1.30
2022-08-22T14:20:32.397Z,1.60
2022-08-22T14:22:43.842Z,1.20
2022-08-22T14:25:00.201Z,1.00
2022-08-22T14:27:11.985Z,1.00
2022-08-22T14:29:27.038Z,1.60
2022-08-22T14:31:45.584Z,1.80
2022-08-22T14:34:04.156Z,1.40
2022-08-22T14:36:21.226Z,1.30
2022-08-22T14:39:09.195Z,1.20
2022-08-22T14:41:55.706Z,1.20
2022-08-22T14:44:20.339Z,1.20
2022-08-22T14:46:56.804Z,1.40
2022-08-22T14:49:44.150Z,1.30
2022-08-22T14:51:56.552Z,1.00
2022-08-22T14:54:28.960Z,2.10
2022-08-22T14:56:39.834Z,1.10
2022-08-22T14:59:14.900Z,1.30
2022-08-22T15:02:04.693Z,1.40
2022-08-22T15:05:05.626Z,1.30
2022-08-22T15:07:36.548Z,0.90
2022-08-22T15:10:23.090Z,1.10
2022-08-22T15:13:00.114Z,1.00
2022-08-22T15:16:03.493Z,1.30
2022-08-22T15:18:52.037Z,1.00
2022-08-22T15:21:10.336Z,0.70
2022-08-22T15:23:26.877Z,1.10
2022-08-22T15:25:47.082Z,1.10
2022-08-22T15:28:05.713Z,1.20
2022-08-22T15:30:21.011Z,1.20
2022-08-22T15:32:42.008Z,1.40
2022-08-22T15:35:16.623Z,1.00
2022-08-22T15:37:34.327Z,0.90
2022-08-22T15:40:10.757Z,1.10
2022-08-22T15:42:28.773Z,1.10
2022-08-22T15:44:49.443Z,1.50
2022-08-22T15:48:20.373Z,1.20
2022-08-22T15:51:02.627Z,1.50
2022-08-22T15:53:34.061Z,1.60
2022-08-22T15:56:35.902Z,1.40
2022-08-22T15:58:49.607Z,1.40
2022-08-22T16:01:19.196Z,1.50
2022-08-22T16:03:30.442Z,1.20
2022-08-22T16:05:37.194Z,1.70
2022-08-22T16:07:48.666Z,1.50
2022-08-22T16:10:00.206Z,1.30
2022-08-22T16:12:40.224Z,1.10
2022-08-22T16:14:56.928Z,1.20
2022-08-22T16:17:09.336Z,1.30
2022-08-22T16:19:27.682Z,1.60
2022-08-22T16:22:08.837Z,1.70
2022-08-22T16:24:18.197Z,1.70
2022-08-22T16:26:31.417Z,1.80
2022-08-22T16:29:17.343Z,1.60
2022-08-22T16:31:42.629Z,1.20
2022-08-22T16:33:50.106Z,1.40
2022-08-22T16:36:19.502Z,1.60
2022-08-22T16:38:45.444Z,1.10
2022-08-22T16:40:52.225Z,1.00
2022-08-22T16:43:18.846Z,1.30
2022-08-22T16:45:40.101Z,1.00
2022-08-22T16:47:58.159Z,1.00
2022-08-22T16:50:26.367Z,0.90
2022-08-22T16:52:53.353Z,1.00
2022-08-22T16:55:32.328Z,1.00
2022-08-22T16:58:05.379Z,1.10
2022-08-22T17:00:44.844Z,0.70
2022-08-22T17:03:27.464Z,0.70
2022-08-22T17:06:34.894Z,0.90
2022-08-22T17:09:10.642Z,0.70
2022-08-22T17:11:57.300Z,0.60
2022-08-22T17:14:29.186Z,1.00
2022-08-22T17:17:11.268Z,0.90
2022-08-22T17:19:35.755Z,1.10
2022-08-22T17:22:08.151Z,1.00
2022-08-22T17:24:53.808Z,1.00
2022-08-22T17:27:18.421Z,0.70
2022-08-22T17:29:33.311Z,0.90
2022-08-22T17:32:02.485Z,1.00
2022-08-22T17:35:00.018Z,0.80
2022-08-22T17:38:08.895Z,0.80
2022-08-22T17:40:32.419Z,0.80
2022-08-22T17:43:09.196Z,0.70
2022-08-22T17:45:53.851Z,0.70
2022-08-22T17:48:36.047Z,0.70
2022-08-22T17:51:00.277Z,0.70
2022-08-22T17:53:43.349Z,0.60
2022-08-22T17:56:24.055Z,1.00
2022-08-22T17:58:51.997Z,0.80
2022-08-22T18:01:14.972Z,0.90
2022-08-22T18:04:34.038Z,0.70
2022-08-22T18:07:21.170Z,0.80
2022-08-22T18:09:48.536Z,0.90
2022-08-22T18:12:18.405Z,0.60
2022-08-22T18:14:34.988Z,0.60
2022-08-22T18:17:14.240Z,0.80
2022-08-22T18:19:42.043Z,1.10
2022-08-22T18:21:59.886Z,0.70
2022-08-22T18:24:12.056Z,0.80
2022-08-22T18:26:46.552Z,0.80
2022-08-22T18:29:09.549Z,0.80
2022-08-22T18:31:49.897Z,0.70
2022-08-22T18:34:30.248Z,0.90
2022-08-22T18:36:58.912Z,0.60
2022-08-22T18:39:32.973Z,0.70
2022-08-22T18:42:16.490Z,0.60
2022-08-22T18:44:33.877Z,0.80
2022-08-22T18:47:05.295Z,0.80
2022-08-22T18:49:49.471Z,0.60
2022-08-22T18:52:30.787Z,0.60
2022-08-22T18:55:23.639Z,0.70
2022-08-22T18:57:57.352Z,0.50
2022-08-22T19:00:22.727Z,0.60
2022-08-22T19:03:25.235Z,1.00
2022-08-22T19:06:20.613Z,0.60
2022-08-22T19:09:40.400Z,0.50
2022-08-22T19:12:41.189Z,0.60
2022-08-22T19:15:26.364Z,0.50
2022-08-22T19:17:57.328Z,0.70
2022-08-22T19:20:51.944Z,0.60
2022-08-22T19:23:37.237Z,0.40
2022-08-22T19:26:32.122Z,0.70
2022-08-22T19:28:48.343Z,0.80
2022-08-22T19:31:45.256Z,0.60
2022-08-22T19:34:40.077Z,0.40
2022-08-22T19:37:36.084Z,0.50
2022-08-22T19:40:08.652Z,0.40
2022-08-22T19:42:40.852Z,0.70
2022-08-22T19:45:30.142Z,0.40
2022-08-22T19:48:19.873Z,0.40
2022-08-22T19:50:34.144Z,0.50
2022-08-22T19:52:59.973Z,0.60
2022-08-22T19:55:24.166Z,0.50
2022-08-22T19:58:09.523Z,0.60
2022-08-22T20:01:36.654Z,0.50
2022-08-22T20:04:21.232Z,0.50
2022-08-22T20:07:28.946Z,0.40
2022-08-22T20:10:28.770Z,0.40
2022-08-22T20:13:25.793Z,0.60
2022-08-22T20:15:35.242Z,0.50
2022-08-22T20:23:02.584Z,0.40
2022-08-22T20:25:17.123Z,0.30
2022-08-22T20:27:54.354Z,0.40
2022-08-22T20:30:44.568Z,0.50
2022-08-22T20:32:58.244Z,0.50
2022-08-22T20:35:22.946Z,0.60
2022-08-22T20:38:08.649Z,0.30
2022-08-22T20:41:16.141Z,0.30
2022-08-22T20:43:40.836Z,0.40
2022-08-22T20:46:43.894Z,0.40
2022-08-22T20:48:59.102Z,0.30
2022-08-22T20:51:15.502Z,0.30
2022-08-22T20:53:37.896Z,0.20
2022-08-22T20:55:58.883Z,0.30
2022-08-22T20:58:37.795Z,0.40
2022-08-22T21:00:52.619Z,0.30
2022-08-22T21:03:28.568Z,0.50
2022-08-22T21:05:44.294Z,0.30
2022-08-22T21:08:32.482Z,0.40
2022-08-22T21:10:58.615Z,0.40
2022-08-22T21:13:11.185Z,0.70
2022-08-22T21:15:39.112Z,0.40
2022-08-22T21:17:53.096Z,0.40
2022-08-22T21:20:32.319Z,0.50
2022-08-22T21:22:54.286Z,0.40
2022-08-22T21:25:41.330Z,0.40
2022-08-22T21:28:01.085Z,0.40
2022-08-22T21:30:13.954Z,0.30
2022-08-22T21:32:56.209Z,0.30
2022-08-22T21:35:11.635Z,0.40
2022-08-22T21:37:50.529Z,0.30
2022-08-22T21:40:25.066Z,0.50
2022-08-22T21:42:50.155Z,0.30
2022-08-22T21:45:13.727Z,0.40
2022-08-22T21:47:39.133Z,0.40
2022-08-22T21:50:21.231Z,0.40
2022-08-22T21:52:38.141Z,0.40
2022-08-22T21:54:56.302Z,0.40
2022-08-22T21:57:17.346Z,0.50
2022-08-22T21:59:51.593Z,0.30
2022-08-22T22:02:48.084Z,0.50
2022-08-22T22:05:27.638Z,0.50
2022-08-22T22:07:46.732Z,0.50
2022-08-22T22:10:34.215Z,0.70
2022-08-22T22:13:18.159Z,0.50
2022-08-22T22:15:27.791Z,0.30
2022-08-22T22:17:53.522Z,0.40
2022-08-22T22:20:17.858Z,0.40
2022-08-22T22:24:43.421Z,0.40
2022-08-22T22:26:52.471Z,0.40
2022-08-22T22:29:00.342Z,0.50
2022-08-22T22:31:42.855Z,0.50
2022-08-22T22:34:20.436Z,0.40
2022-08-22T22:36:47.943Z,0.40
2022-08-22T22:39:00.840Z,0.40
2022-08-22T22:41:26.392Z,0.60
2022-08-22T22:43:49.323Z,0.50
2022-08-22T22:46:11.140Z,0.50
2022-08-22T22:48:32.845Z,0.60
2022-08-22T22:50:51.798Z,0.40
2022-08-22T22:53:19.619Z,0.40
2022-08-22T22:56:00.664Z,0.50
2022-08-22T22:58:17.847Z,0.30
2022-08-22T23:00:53.010Z,0.50
2022-08-22T23:03:09.700Z,0.30
2022-08-22T23:05:22.997Z,0.40
2022-08-22T23:07:39.513Z,0.50
2022-08-22T23:09:46.573Z,0.40
2022-08-22T23:11:59.191Z,0.50
2022-08-22T23:14:09.142Z,0.40
2022-08-22T23:16:26.889Z,0.40
2022-08-22T23:18:43.548Z,0.40
2022-08-22T23:20:54.205Z,0.40
2022-08-22T23:23:20.055Z,0.30
2022-08-22T23:25:40.784Z,0.50
2022-08-22T23:28:07.511Z,0.40
2022-08-22T23:30:34.289Z,0.30
2022-08-22T23:33:18.698Z,0.30
2022-08-22T23:35:42.553Z,0.50
2022-08-22T23:37:59.129Z,0.40
2022-08-22T23:40:09.315Z,0.40
2022-08-22T23:42:20.590Z,0.40
2022-08-22T23:44:31.799Z,0.20
2022-08-22T23:46:43.249Z,0.50
2022-08-22T23:48:59.290Z,0.30
2022-08-22T23:51:57.701Z,0.40
2022-08-22T23:54:13.718Z,0.50
2022-08-22T23:56:58.515Z,0.30
2022-08-22T23:59:16.776Z,0.30
